sensor_id;sensor_type;location;lat;lon;timestamp;P1;durP1;ratioP1;P2;durP2;ratioP2
41705;SDS011;27385;51.096;17.190;2023-03-23T00:00:43;55.40;;;25.90;;
41705;SDS011;27385;51.096;17.190;2023-03-23T00:03:16;58.30;;;23.40;;
41705;SDS011;27385;51.096;17.190;2023-03-23T00:05:48;57.50;;;24.40;;
41705;SDS011;27385;51.096;17.190;2023-03-23T00:08:20;48.60;;;23.30;;
41705;SDS011;27385;51.096;17.190;2023-03-23T00:10:52;53.90;;;24.90;;
41705;SDS011;27385;51.096;17.190;2023-03-23T00:13:24;54.70;;;25.20;;
41705;SDS011;27385;51.096;17.190;2023-03-23T00:15:56;48.90;;;25.20;;
41705;SDS011;27385;51.096;17.190;2023-03-23T00:18:27;52.00;;;24.90;;
41705;SDS011;27385;51.096;17.190;2023-03-23T00:20:58;57.40;;;26.40;;
41705;SDS011;27385;51.096;17.190;2023-03-23T00:23:31;58.30;;;26.80;;
41705;SDS011;27385;51.096;17.190;2023-03-23T00:26:02;52.00;;;26.30;;
41705;SDS011;27385;51.096;17.190;2023-03-23T00:28:34;51.20;;;24.50;;
41705;SDS011;27385;51.096;17.190;2023-03-23T00:31:07;50.00;;;23.70;;
41705;SDS011;27385;51.096;17.190;2023-03-23T00:33:39;47.30;;;23.30;;
41705;SDS011;27385;51.096;17.190;2023-03-23T00:36:11;41.60;;;21.20;;
41705;SDS011;27385;51.096;17.190;2023-03-23T00:38:42;40.10;;;20.20;;
41705;SDS011;27385;51.096;17.190;2023-03-23T00:41:15;45.40;;;20.80;;
41705;SDS011;27385;51.096;17.190;2023-03-23T00:43:46;45.40;;;20.70;;
41705;SDS011;27385;51.096;17.190;2023-03-23T00:46:16;41.60;;;19.20;;
41705;SDS011;27385;51.096;17.190;2023-03-23T00:48:48;41.90;;;19.40;;
41705;SDS011;27385;51.096;17.190;2023-03-23T00:51:19;42.80;;;20.50;;
41705;SDS011;27385;51.096;17.190;2023-03-23T00:53:50;40.90;;;19.60;;
41705;SDS011;27385;51.096;17.190;2023-03-23T00:56:21;45.70;;;18.70;;
41705;SDS011;27385;51.096;17.190;2023-03-23T00:58:54;38.00;;;17.70;;
41705;SDS011;27385;51.096;17.190;2023-03-23T01:01:25;35.60;;;18.10;;
41705;SDS011;27385;51.096;17.190;2023-03-23T01:03:55;35.90;;;16.60;;
41705;SDS011;27385;51.096;17.190;2023-03-23T01:06:32;35.40;;;15.70;;
41705;SDS011;27385;51.096;17.190;2023-03-23T01:09:07;45.90;;;18.50;;
41705;SDS011;27385;51.096;17.190;2023-03-23T01:11:42;35.90;;;17.00;;
41705;SDS011;27385;51.096;17.190;2023-03-23T01:14:14;38.70;;;17.00;;
41705;SDS011;27385;51.096;17.190;2023-03-23T01:16:47;41.60;;;20.90;;
41705;SDS011;27385;51.096;17.190;2023-03-23T01:19:18;41.40;;;20.00;;
41705;SDS011;27385;51.096;17.190;2023-03-23T01:21:49;44.10;;;21.30;;
41705;SDS011;27385;51.096;17.190;2023-03-23T01:24:20;39.90;;;19.20;;
41705;SDS011;27385;51.096;17.190;2023-03-23T01:26:51;39.70;;;17.50;;
41705;SDS011;27385;51.096;17.190;2023-03-23T01:29:22;38.60;;;18.20;;
41705;SDS011;27385;51.096;17.190;2023-03-23T01:31:53;42.50;;;20.10;;
41705;SDS011;27385;51.096;17.190;2023-03-23T01:34:23;39.60;;;18.80;;
41705;SDS011;27385;51.096;17.190;2023-03-23T01:36:54;39.30;;;19.00;;
41705;SDS011;27385;51.096;17.190;2023-03-23T01:39:26;41.80;;;20.50;;
41705;SDS011;27385;51.096;17.190;2023-03-23T01:41:56;40.10;;;18.00;;
41705;SDS011;27385;51.096;17.190;2023-03-23T01:47:44;39.80;;;18.80;;
41705;SDS011;27385;51.096;17.190;2023-03-23T01:50:15;39.70;;;18.90;;
41705;SDS011;27385;51.096;17.190;2023-03-23T01:52:48;39.50;;;18.80;;
41705;SDS011;27385;51.096;17.190;2023-03-23T01:55:20;41.50;;;17.80;;
41705;SDS011;27385;51.096;17.190;2023-03-23T01:57:53;39.30;;;17.40;;
41705;SDS011;27385;51.096;17.190;2023-03-23T02:00:25;32.60;;;15.60;;
41705;SDS011;27385;51.096;17.190;2023-03-23T02:02:56;37.70;;;19.30;;
41705;SDS011;27385;51.096;17.190;2023-03-23T02:05:30;37.50;;;18.00;;
41705;SDS011;27385;51.096;17.190;2023-03-23T02:08:04;37.70;;;16.80;;
41705;SDS011;27385;51.096;17.190;2023-03-23T02:10:37;39.00;;;18.70;;
41705;SDS011;27385;51.096;17.190;2023-03-23T02:13:09;37.40;;;16.80;;
41705;SDS011;27385;51.096;17.190;2023-03-23T02:15:46;40.30;;;18.20;;
41705;SDS011;27385;51.096;17.190;2023-03-23T02:18:25;42.50;;;19.40;;
41705;SDS011;27385;51.096;17.190;2023-03-23T02:21:16;40.70;;;16.90;;
41705;SDS011;27385;51.096;17.190;2023-03-23T02:24:12;35.30;;;15.20;;
41705;SDS011;27385;51.096;17.190;2023-03-23T02:27:00;32.80;;;13.20;;
41705;SDS011;27385;51.096;17.190;2023-03-23T02:32:44;31.30;;;12.40;;
41705;SDS011;27385;51.096;17.190;2023-03-23T02:35:34;29.70;;;12.20;;
41705;SDS011;27385;51.096;17.190;2023-03-23T02:38:09;30.90;;;12.10;;
41705;SDS011;27385;51.096;17.190;2023-03-23T02:40:45;28.40;;;12.50;;
41705;SDS011;27385;51.096;17.190;2023-03-23T02:43:20;27.50;;;11.80;;
41705;SDS011;27385;51.096;17.190;2023-03-23T02:45:53;31.80;;;13.20;;
41705;SDS011;27385;51.096;17.190;2023-03-23T02:48:28;34.20;;;15.10;;
41705;SDS011;27385;51.096;17.190;2023-03-23T02:51:00;31.20;;;12.80;;
41705;SDS011;27385;51.096;17.190;2023-03-23T02:53:33;26.30;;;10.70;;
41705;SDS011;27385;51.096;17.190;2023-03-23T02:56:06;24.20;;;9.70;;
41705;SDS011;27385;51.096;17.190;2023-03-23T02:58:40;25.40;;;9.80;;
41705;SDS011;27385;51.096;17.190;2023-03-23T03:01:15;22.00;;;9.30;;
41705;SDS011;27385;51.096;17.190;2023-03-23T03:04:01;22.40;;;7.90;;
41705;SDS011;27385;51.096;17.190;2023-03-23T03:06:38;24.90;;;7.20;;
41705;SDS011;27385;51.096;17.190;2023-03-23T03:09:18;23.10;;;8.30;;
41705;SDS011;27385;51.096;17.190;2023-03-23T03:11:56;23.10;;;7.80;;
41705;SDS011;27385;51.096;17.190;2023-03-23T03:14:34;22.10;;;8.60;;
41705;SDS011;27385;51.096;17.190;2023-03-23T03:17:12;21.90;;;8.70;;
41705;SDS011;27385;51.096;17.190;2023-03-23T03:19:49;28.70;;;10.90;;
41705;SDS011;27385;51.096;17.190;2023-03-23T03:22:24;27.10;;;11.30;;
41705;SDS011;27385;51.096;17.190;2023-03-23T03:24:57;27.40;;;12.10;;
41705;SDS011;27385;51.096;17.190;2023-03-23T03:27:30;32.70;;;15.20;;
41705;SDS011;27385;51.096;17.190;2023-03-23T03:30:03;34.60;;;15.20;;
41705;SDS011;27385;51.096;17.190;2023-03-23T03:32:40;40.60;;;20.50;;
41705;SDS011;27385;51.096;17.190;2023-03-23T03:35:16;43.50;;;19.00;;
41705;SDS011;27385;51.096;17.190;2023-03-23T03:37:48;37.50;;;19.70;;
41705;SDS011;27385;51.096;17.190;2023-03-23T03:40:23;34.20;;;18.40;;
41705;SDS011;27385;51.096;17.190;2023-03-23T03:42:54;35.80;;;18.50;;
41705;SDS011;27385;51.096;17.190;2023-03-23T03:45:25;34.70;;;17.80;;
41705;SDS011;27385;51.096;17.190;2023-03-23T03:47:56;32.10;;;16.80;;
41705;SDS011;27385;51.096;17.190;2023-03-23T03:50:26;30.30;;;16.20;;
41705;SDS011;27385;51.096;17.190;2023-03-23T03:52:57;26.80;;;12.60;;
41705;SDS011;27385;51.096;17.190;2023-03-23T03:55:28;26.80;;;12.00;;
41705;SDS011;27385;51.096;17.190;2023-03-23T03:58:03;25.60;;;11.10;;
41705;SDS011;27385;51.096;17.190;2023-03-23T04:00:35;22.40;;;10.20;;
41705;SDS011;27385;51.096;17.190;2023-03-23T04:03:07;26.70;;;10.20;;
41705;SDS011;27385;51.096;17.190;2023-03-23T04:05:38;21.70;;;9.40;;
41705;SDS011;27385;51.096;17.190;2023-03-23T04:08:09;21.80;;;8.00;;
41705;SDS011;27385;51.096;17.190;2023-03-23T04:10:40;16.80;;;7.40;;
41705;SDS011;27385;51.096;17.190;2023-03-23T04:13:11;19.10;;;6.90;;
41705;SDS011;27385;51.096;17.190;2023-03-23T04:15:42;18.90;;;6.60;;
41705;SDS011;27385;51.096;17.190;2023-03-23T04:18:14;16.80;;;5.30;;
41705;SDS011;27385;51.096;17.190;2023-03-23T04:20:46;16.10;;;4.80;;
41705;SDS011;27385;51.096;17.190;2023-03-23T04:23:19;15.10;;;5.50;;
41705;SDS011;27385;51.096;17.190;2023-03-23T04:25:50;13.30;;;3.80;;
41705;SDS011;27385;51.096;17.190;2023-03-23T04:28:26;17.20;;;4.00;;
41705;SDS011;27385;51.096;17.190;2023-03-23T04:30:57;17.20;;;6.10;;
41705;SDS011;27385;51.096;17.190;2023-03-23T04:33:28;12.10;;;3.70;;
41705;SDS011;27385;51.096;17.190;2023-03-23T04:36:00;18.60;;;5.20;;
41705;SDS011;27385;51.096;17.190;2023-03-23T04:38:33;12.20;;;4.00;;
41705;SDS011;27385;51.096;17.190;2023-03-23T04:41:04;17.70;;;5.30;;
41705;SDS011;27385;51.096;17.190;2023-03-23T04:43:35;14.30;;;4.50;;
41705;SDS011;27385;51.096;17.190;2023-03-23T04:46:10;13.70;;;4.20;;
41705;SDS011;27385;51.096;17.190;2023-03-23T04:48:46;11.50;;;3.70;;
41705;SDS011;27385;51.096;17.190;2023-03-23T04:51:17;13.10;;;3.00;;
41705;SDS011;27385;51.096;17.190;2023-03-23T04:53:47;13.70;;;3.60;;
41705;SDS011;27385;51.096;17.190;2023-03-23T04:56:19;13.00;;;3.80;;
41705;SDS011;27385;51.096;17.190;2023-03-23T04:58:50;11.50;;;3.10;;
41705;SDS011;27385;51.096;17.190;2023-03-23T05:01:21;11.80;;;3.40;;
41705;SDS011;27385;51.096;17.190;2023-03-23T05:03:55;15.70;;;3.90;;
41705;SDS011;27385;51.096;17.190;2023-03-23T05:06:27;11.40;;;3.40;;
41705;SDS011;27385;51.096;17.190;2023-03-23T05:08:58;14.00;;;3.60;;
41705;SDS011;27385;51.096;17.190;2023-03-23T05:11:30;12.60;;;4.30;;
41705;SDS011;27385;51.096;17.190;2023-03-23T05:14:01;9.80;;;3.40;;
41705;SDS011;27385;51.096;17.190;2023-03-23T05:16:33;14.90;;;3.60;;
41705;SDS011;27385;51.096;17.190;2023-03-23T05:19:05;11.20;;;3.40;;
41705;SDS011;27385;51.096;17.190;2023-03-23T05:21:36;9.60;;;2.90;;
41705;SDS011;27385;51.096;17.190;2023-03-23T05:24:07;16.40;;;4.10;;
41705;SDS011;27385;51.096;17.190;2023-03-23T05:26:39;13.60;;;4.50;;
41705;SDS011;27385;51.096;17.190;2023-03-23T05:29:10;12.50;;;3.40;;
41705;SDS011;27385;51.096;17.190;2023-03-23T05:31:41;11.60;;;3.20;;
41705;SDS011;27385;51.096;17.190;2023-03-23T05:34:12;15.70;;;3.50;;
41705;SDS011;27385;51.096;17.190;2023-03-23T05:36:46;14.10;;;3.10;;
41705;SDS011;27385;51.096;17.190;2023-03-23T05:39:17;12.00;;;2.70;;
41705;SDS011;27385;51.096;17.190;2023-03-23T05:41:47;12.00;;;2.70;;
41705;SDS011;27385;51.096;17.190;2023-03-23T05:44:19;9.60;;;2.70;;
41705;SDS011;27385;51.096;17.190;2023-03-23T05:46:50;9.30;;;3.20;;
41705;SDS011;27385;51.096;17.190;2023-03-23T05:49:21;9.00;;;2.50;;
41705;SDS011;27385;51.096;17.190;2023-03-23T05:51:54;10.40;;;2.70;;
41705;SDS011;27385;51.096;17.190;2023-03-23T05:54:26;12.70;;;3.00;;
41705;SDS011;27385;51.096;17.190;2023-03-23T05:56:57;7.20;;;2.20;;
41705;SDS011;27385;51.096;17.190;2023-03-23T05:59:29;14.70;;;2.60;;
41705;SDS011;27385;51.096;17.190;2023-03-23T06:02:01;10.50;;;2.50;;
41705;SDS011;27385;51.096;17.190;2023-03-23T06:04:32;10.50;;;2.30;;
41705;SDS011;27385;51.096;17.190;2023-03-23T06:07:06;8.10;;;2.10;;
41705;SDS011;27385;51.096;17.190;2023-03-23T06:09:40;10.30;;;2.40;;
41705;SDS011;27385;51.096;17.190;2023-03-23T06:12:11;8.90;;;2.50;;
41705;SDS011;27385;51.096;17.190;2023-03-23T06:14:42;10.80;;;2.40;;
41705;SDS011;27385;51.096;17.190;2023-03-23T06:17:13;10.70;;;2.40;;
41705;SDS011;27385;51.096;17.190;2023-03-23T06:19:45;10.10;;;2.00;;
41705;SDS011;27385;51.096;17.190;2023-03-23T06:22:18;7.50;;;1.90;;
41705;SDS011;27385;51.096;17.190;2023-03-23T06:24:49;8.10;;;1.80;;
41705;SDS011;27385;51.096;17.190;2023-03-23T06:27:20;10.60;;;2.30;;
41705;SDS011;27385;51.096;17.190;2023-03-23T06:29:51;6.30;;;1.50;;
41705;SDS011;27385;51.096;17.190;2023-03-23T06:32:25;10.20;;;2.40;;
41705;SDS011;27385;51.096;17.190;2023-03-23T06:35:00;7.10;;;1.80;;
41705;SDS011;27385;51.096;17.190;2023-03-23T06:37:32;8.90;;;2.20;;
41705;SDS011;27385;51.096;17.190;2023-03-23T06:40:05;8.90;;;1.80;;
41705;SDS011;27385;51.096;17.190;2023-03-23T06:42:39;7.20;;;1.40;;
41705;SDS011;27385;51.096;17.190;2023-03-23T06:45:11;9.10;;;2.20;;
41705;SDS011;27385;51.096;17.190;2023-03-23T06:47:45;7.10;;;1.40;;
41705;SDS011;27385;51.096;17.190;2023-03-23T06:50:17;9.10;;;1.90;;
41705;SDS011;27385;51.096;17.190;2023-03-23T06:52:49;10.10;;;2.20;;
41705;SDS011;27385;51.096;17.190;2023-03-23T06:55:22;9.80;;;1.80;;
41705;SDS011;27385;51.096;17.190;2023-03-23T06:57:54;6.90;;;1.80;;
41705;SDS011;27385;51.096;17.190;2023-03-23T07:00:27;11.00;;;2.10;;
41705;SDS011;27385;51.096;17.190;2023-03-23T07:03:02;12.00;;;2.50;;
41705;SDS011;27385;51.096;17.190;2023-03-23T07:05:34;8.80;;;1.80;;
41705;SDS011;27385;51.096;17.190;2023-03-23T07:08:06;7.60;;;1.90;;
41705;SDS011;27385;51.096;17.190;2023-03-23T07:10:38;8.80;;;1.60;;
41705;SDS011;27385;51.096;17.190;2023-03-23T07:13:10;7.40;;;1.80;;
41705;SDS011;27385;51.096;17.190;2023-03-23T07:15:42;9.30;;;1.80;;
41705;SDS011;27385;51.096;17.190;2023-03-23T07:18:14;8.10;;;1.60;;
41705;SDS011;27385;51.096;17.190;2023-03-23T07:20:48;13.40;;;1.60;;
41705;SDS011;27385;51.096;17.190;2023-03-23T07:23:21;7.30;;;1.90;;
41705;SDS011;27385;51.096;17.190;2023-03-23T07:25:53;10.40;;;2.30;;
41705;SDS011;27385;51.096;17.190;2023-03-23T07:28:26;13.50;;;2.10;;
41705;SDS011;27385;51.096;17.190;2023-03-23T07:30:58;9.80;;;1.80;;
41705;SDS011;27385;51.096;17.190;2023-03-23T07:33:30;13.40;;;1.90;;
41705;SDS011;27385;51.096;17.190;2023-03-23T07:36:04;10.20;;;2.40;;
41705;SDS011;27385;51.096;17.190;2023-03-23T07:38:37;9.20;;;1.90;;
41705;SDS011;27385;51.096;17.190;2023-03-23T07:41:10;10.20;;;1.90;;
41705;SDS011;27385;51.096;17.190;2023-03-23T07:43:42;10.90;;;2.50;;
41705;SDS011;27385;51.096;17.190;2023-03-23T07:46:14;9.80;;;2.50;;
41705;SDS011;27385;51.096;17.190;2023-03-23T07:48:47;10.80;;;3.00;;
41705;SDS011;27385;51.096;17.190;2023-03-23T07:51:19;15.00;;;2.60;;
41705;SDS011;27385;51.096;17.190;2023-03-23T07:53:50;14.10;;;2.90;;
41705;SDS011;27385;51.096;17.190;2023-03-23T07:56:23;11.80;;;2.40;;
41705;SDS011;27385;51.096;17.190;2023-03-23T07:58:54;12.50;;;2.30;;
41705;SDS011;27385;51.096;17.190;2023-03-23T08:01:25;10.70;;;2.40;;
41705;SDS011;27385;51.096;17.190;2023-03-23T08:03:56;12.80;;;3.10;;
41705;SDS011;27385;51.096;17.190;2023-03-23T08:06:28;12.60;;;2.70;;
41705;SDS011;27385;51.096;17.190;2023-03-23T08:09:01;7.70;;;2.00;;
41705;SDS011;27385;51.096;17.190;2023-03-23T08:11:34;10.50;;;2.60;;
41705;SDS011;27385;51.096;17.190;2023-03-23T08:14:06;8.30;;;2.20;;
41705;SDS011;27385;51.096;17.190;2023-03-23T08:16:38;13.70;;;3.00;;
41705;SDS011;27385;51.096;17.190;2023-03-23T08:19:09;12.10;;;3.30;;
41705;SDS011;27385;51.096;17.190;2023-03-23T08:21:41;9.40;;;2.80;;
41705;SDS011;27385;51.096;17.190;2023-03-23T08:24:11;12.70;;;3.00;;
41705;SDS011;27385;51.096;17.190;2023-03-23T08:26:42;10.20;;;2.80;;
41705;SDS011;27385;51.096;17.190;2023-03-23T08:29:14;11.50;;;3.00;;
41705;SDS011;27385;51.096;17.190;2023-03-23T08:31:45;8.10;;;2.20;;
41705;SDS011;27385;51.096;17.190;2023-03-23T08:34:16;11.00;;;2.70;;
41705;SDS011;27385;51.096;17.190;2023-03-23T08:36:48;7.70;;;1.90;;
41705;SDS011;27385;51.096;17.190;2023-03-23T08:39:19;10.50;;;2.40;;
41705;SDS011;27385;51.096;17.190;2023-03-23T08:41:51;10.50;;;1.90;;
41705;SDS011;27385;51.096;17.190;2023-03-23T08:44:21;10.10;;;2.00;;
41705;SDS011;27385;51.096;17.190;2023-03-23T08:46:52;13.40;;;2.80;;
41705;SDS011;27385;51.096;17.190;2023-03-23T08:49:25;11.20;;;2.40;;
41705;SDS011;27385;51.096;17.190;2023-03-23T08:51:56;7.90;;;1.90;;
41705;SDS011;27385;51.096;17.190;2023-03-23T08:54:28;10.40;;;2.70;;
41705;SDS011;27385;51.096;17.190;2023-03-23T08:57:00;10.10;;;2.50;;
41705;SDS011;27385;51.096;17.190;2023-03-23T08:59:31;10.30;;;2.30;;
41705;SDS011;27385;51.096;17.190;2023-03-23T09:02:02;10.00;;;1.60;;
41705;SDS011;27385;51.096;17.190;2023-03-23T09:04:34;10.70;;;1.90;;
41705;SDS011;27385;51.096;17.190;2023-03-23T09:07:05;9.90;;;1.80;;
41705;SDS011;27385;51.096;17.190;2023-03-23T09:09:37;9.00;;;1.80;;
41705;SDS011;27385;51.096;17.190;2023-03-23T09:12:08;6.80;;;1.50;;
41705;SDS011;27385;51.096;17.190;2023-03-23T09:14:40;5.40;;;1.10;;
41705;SDS011;27385;51.096;17.190;2023-03-23T09:17:13;6.00;;;1.20;;
41705;SDS011;27385;51.096;17.190;2023-03-23T09:19:44;8.90;;;1.40;;
41705;SDS011;27385;51.096;17.190;2023-03-23T09:22:15;3.20;;;0.80;;
41705;SDS011;27385;51.096;17.190;2023-03-23T09:24:47;5.70;;;0.80;;
41705;SDS011;27385;51.096;17.190;2023-03-23T09:27:19;5.30;;;0.90;;
41705;SDS011;27385;51.096;17.190;2023-03-23T09:29:50;4.50;;;0.60;;
41705;SDS011;27385;51.096;17.190;2023-03-23T09:32:23;5.20;;;0.70;;
41705;SDS011;27385;51.096;17.190;2023-03-23T09:34:54;6.00;;;0.90;;
41705;SDS011;27385;51.096;17.190;2023-03-23T09:37:25;6.00;;;0.90;;
41705;SDS011;27385;51.096;17.190;2023-03-23T09:39:57;3.50;;;0.90;;
41705;SDS011;27385;51.096;17.190;2023-03-23T09:42:33;8.90;;;1.10;;
41705;SDS011;27385;51.096;17.190;2023-03-23T09:45:12;3.30;;;0.90;;
41705;SDS011;27385;51.096;17.190;2023-03-23T09:47:54;5.70;;;0.90;;
41705;SDS011;27385;51.096;17.190;2023-03-23T09:50:36;4.10;;;1.00;;
41705;SDS011;27385;51.096;17.190;2023-03-23T09:53:13;5.20;;;1.10;;
41705;SDS011;27385;51.096;17.190;2023-03-23T09:55:50;6.20;;;1.00;;
41705;SDS011;27385;51.096;17.190;2023-03-23T09:58:22;3.60;;;0.90;;
41705;SDS011;27385;51.096;17.190;2023-03-23T10:00:56;3.00;;;0.80;;
41705;SDS011;27385;51.096;17.190;2023-03-23T10:03:32;7.40;;;1.10;;
41705;SDS011;27385;51.096;17.190;2023-03-23T10:06:08;5.20;;;0.80;;
41705;SDS011;27385;51.096;17.190;2023-03-23T10:08:43;3.00;;;0.70;;
41705;SDS011;27385;51.096;17.190;2023-03-23T10:11:16;4.00;;;0.70;;
41705;SDS011;27385;51.096;17.190;2023-03-23T10:13:59;2.40;;;0.60;;
41705;SDS011;27385;51.096;17.190;2023-03-23T10:16:41;4.70;;;1.00;;
41705;SDS011;27385;51.096;17.190;2023-03-23T10:19:17;3.80;;;0.80;;
41705;SDS011;27385;51.096;17.190;2023-03-23T10:21:56;2.20;;;0.50;;
41705;SDS011;27385;51.096;17.190;2023-03-23T10:24:35;3.70;;;0.70;;
41705;SDS011;27385;51.096;17.190;2023-03-23T10:27:16;2.60;;;0.70;;
41705;SDS011;27385;51.096;17.190;2023-03-23T10:29:55;5.60;;;0.80;;
41705;SDS011;27385;51.096;17.190;2023-03-23T10:32:41;3.30;;;0.60;;
41705;SDS011;27385;51.096;17.190;2023-03-23T10:35:18;3.90;;;0.60;;
41705;SDS011;27385;51.096;17.190;2023-03-23T10:37:55;3.30;;;0.50;;
41705;SDS011;27385;51.096;17.190;2023-03-23T10:40:30;3.70;;;0.70;;
41705;SDS011;27385;51.096;17.190;2023-03-23T10:43:02;2.20;;;0.50;;
41705;SDS011;27385;51.096;17.190;2023-03-23T10:45:34;3.40;;;0.50;;
41705;SDS011;27385;51.096;17.190;2023-03-23T10:48:07;2.20;;;0.50;;
41705;SDS011;27385;51.096;17.190;2023-03-23T10:50:43;2.80;;;0.50;;
41705;SDS011;27385;51.096;17.190;2023-03-23T10:53:18;3.30;;;0.40;;
41705;SDS011;27385;51.096;17.190;2023-03-23T10:55:51;1.40;;;0.30;;
41705;SDS011;27385;51.096;17.190;2023-03-23T10:58:24;4.60;;;1.20;;
41705;SDS011;27385;51.096;17.190;2023-03-23T11:00:58;5.70;;;0.60;;
41705;SDS011;27385;51.096;17.190;2023-03-23T11:03:37;3.10;;;0.70;;
41705;SDS011;27385;51.096;17.190;2023-03-23T11:06:17;3.80;;;0.40;;
41705;SDS011;27385;51.096;17.190;2023-03-23T11:08:52;2.60;;;0.30;;
41705;SDS011;27385;51.096;17.190;2023-03-23T11:11:26;1.70;;;0.40;;
41705;SDS011;27385;51.096;17.190;2023-03-23T11:13:59;2.90;;;0.60;;
41705;SDS011;27385;51.096;17.190;2023-03-23T11:16:51;2.30;;;0.40;;
41705;SDS011;27385;51.096;17.190;2023-03-23T11:19:24;3.50;;;0.40;;
41705;SDS011;27385;51.096;17.190;2023-03-23T11:22:05;7.60;;;0.40;;
41705;SDS011;27385;51.096;17.190;2023-03-23T11:24:41;5.90;;;0.50;;
41705;SDS011;27385;51.096;17.190;2023-03-23T11:27:14;8.40;;;1.00;;
41705;SDS011;27385;51.096;17.190;2023-03-23T11:29:48;2.90;;;0.50;;
41705;SDS011;27385;51.096;17.190;2023-03-23T11:32:24;4.00;;;0.60;;
41705;SDS011;27385;51.096;17.190;2023-03-23T11:34:58;4.00;;;0.40;;
41705;SDS011;27385;51.096;17.190;2023-03-23T11:37:33;1.90;;;0.40;;
41705;SDS011;27385;51.096;17.190;2023-03-23T11:40:15;4.00;;;0.70;;
41705;SDS011;27385;51.096;17.190;2023-03-23T11:42:49;3.20;;;0.30;;
41705;SDS011;27385;51.096;17.190;2023-03-23T11:45:31;3.70;;;0.30;;
41705;SDS011;27385;51.096;17.190;2023-03-23T11:48:13;4.60;;;1.00;;
41705;SDS011;27385;51.096;17.190;2023-03-23T11:50:50;2.40;;;0.40;;
41705;SDS011;27385;51.096;17.190;2023-03-23T11:53:30;2.90;;;0.50;;
41705;SDS011;27385;51.096;17.190;2023-03-23T11:56:09;5.50;;;0.50;;
41705;SDS011;27385;51.096;17.190;2023-03-23T11:58:45;1.70;;;0.30;;
41705;SDS011;27385;51.096;17.190;2023-03-23T12:01:19;4.70;;;0.50;;
41705;SDS011;27385;51.096;17.190;2023-03-23T12:04:13;2.60;;;0.40;;
41705;SDS011;27385;51.096;17.190;2023-03-23T12:06:58;4.90;;;0.60;;
41705;SDS011;27385;51.096;17.190;2023-03-23T12:09:42;6.70;;;0.60;;
41705;SDS011;27385;51.096;17.190;2023-03-23T12:12:21;4.20;;;0.50;;
41705;SDS011;27385;51.096;17.190;2023-03-23T12:14:59;1.70;;;0.60;;
41705;SDS011;27385;51.096;17.190;2023-03-23T12:17:43;5.10;;;0.50;;
41705;SDS011;27385;51.096;17.190;2023-03-23T12:20:26;2.80;;;0.40;;
41705;SDS011;27385;51.096;17.190;2023-03-23T12:23:07;2.30;;;0.40;;
41705;SDS011;27385;51.096;17.190;2023-03-23T12:25:54;3.90;;;0.80;;
41705;SDS011;27385;51.096;17.190;2023-03-23T12:32:15;2.90;;;0.50;;
41705;SDS011;27385;51.096;17.190;2023-03-23T12:35:05;3.00;;;0.50;;
41705;SDS011;27385;51.096;17.190;2023-03-23T12:37:48;1.50;;;0.40;;
41705;SDS011;27385;51.096;17.190;2023-03-23T12:40:44;6.00;;;0.50;;
41705;SDS011;27385;51.096;17.190;2023-03-23T12:43:28;3.00;;;0.60;;
41705;SDS011;27385;51.096;17.190;2023-03-23T12:46:13;4.80;;;0.50;;
41705;SDS011;27385;51.096;17.190;2023-03-23T12:48:56;2.60;;;0.40;;
41705;SDS011;27385;51.096;17.190;2023-03-23T12:51:33;2.90;;;0.50;;
41705;SDS011;27385;51.096;17.190;2023-03-23T12:54:11;1.90;;;0.40;;
41705;SDS011;27385;51.096;17.190;2023-03-23T12:56:49;1.60;;;0.40;;
41705;SDS011;27385;51.096;17.190;2023-03-23T12:59:26;4.70;;;0.70;;
41705;SDS011;27385;51.096;17.190;2023-03-23T13:02:05;4.70;;;0.50;;
41705;SDS011;27385;51.096;17.190;2023-03-23T13:04:44;1.70;;;0.30;;
41705;SDS011;27385;51.096;17.190;2023-03-23T13:07:22;3.60;;;0.60;;
41705;SDS011;27385;51.096;17.190;2023-03-23T13:10:01;2.80;;;0.60;;
41705;SDS011;27385;51.096;17.190;2023-03-23T13:12:36;2.80;;;0.50;;
41705;SDS011;27385;51.096;17.190;2023-03-23T13:15:20;2.50;;;0.70;;
41705;SDS011;27385;51.096;17.190;2023-03-23T13:17:58;5.10;;;0.60;;
41705;SDS011;27385;51.096;17.190;2023-03-23T13:20:43;8.90;;;1.50;;
41705;SDS011;27385;51.096;17.190;2023-03-23T13:23:23;9.30;;;0.80;;
41705;SDS011;27385;51.096;17.190;2023-03-23T13:25:59;3.70;;;0.60;;
41705;SDS011;27385;51.096;17.190;2023-03-23T13:28:32;4.40;;;0.80;;
41705;SDS011;27385;51.096;17.190;2023-03-23T13:31:25;5.50;;;0.60;;
41705;SDS011;27385;51.096;17.190;2023-03-23T13:34:02;4.70;;;0.70;;
41705;SDS011;27385;51.096;17.190;2023-03-23T13:36:35;5.90;;;0.70;;
41705;SDS011;27385;51.096;17.190;2023-03-23T13:39:16;4.00;;;0.80;;
41705;SDS011;27385;51.096;17.190;2023-03-23T13:42:00;2.40;;;0.70;;
41705;SDS011;27385;51.096;17.190;2023-03-23T13:44:41;5.60;;;0.60;;
41705;SDS011;27385;51.096;17.190;2023-03-23T13:47:27;5.00;;;0.90;;
41705;SDS011;27385;51.096;17.190;2023-03-23T13:50:09;6.00;;;0.80;;
41705;SDS011;27385;51.096;17.190;2023-03-23T13:52:50;5.70;;;0.60;;
41705;SDS011;27385;51.096;17.190;2023-03-23T13:55:29;4.40;;;0.80;;
41705;SDS011;27385;51.096;17.190;2023-03-23T13:58:11;4.40;;;0.70;;
41705;SDS011;27385;51.096;17.190;2023-03-23T14:01:03;5.30;;;1.10;;
41705;SDS011;27385;51.096;17.190;2023-03-23T14:03:45;4.20;;;0.60;;
41705;SDS011;27385;51.096;17.190;2023-03-23T14:06:19;4.60;;;0.60;;
41705;SDS011;27385;51.096;17.190;2023-03-23T14:08:53;5.20;;;0.70;;
41705;SDS011;27385;51.096;17.190;2023-03-23T14:11:24;3.10;;;0.70;;
41705;SDS011;27385;51.096;17.190;2023-03-23T14:13:59;3.90;;;1.00;;
41705;SDS011;27385;51.096;17.190;2023-03-23T14:16:35;6.60;;;0.80;;
41705;SDS011;27385;51.096;17.190;2023-03-23T14:19:15;4.10;;;0.90;;
41705;SDS011;27385;51.096;17.190;2023-03-23T14:21:51;3.50;;;0.80;;
41705;SDS011;27385;51.096;17.190;2023-03-23T14:24:24;3.10;;;0.80;;
41705;SDS011;27385;51.096;17.190;2023-03-23T14:27:02;5.10;;;0.90;;
41705;SDS011;27385;51.096;17.190;2023-03-23T14:29:41;6.90;;;0.90;;
41705;SDS011;27385;51.096;17.190;2023-03-23T14:32:13;4.70;;;0.80;;
41705;SDS011;27385;51.096;17.190;2023-03-23T14:34:47;4.60;;;0.90;;
41705;SDS011;27385;51.096;17.190;2023-03-23T14:37:19;12.20;;;2.70;;
41705;SDS011;27385;51.096;17.190;2023-03-23T14:39:51;4.30;;;1.00;;
41705;SDS011;27385;51.096;17.190;2023-03-23T14:42:26;6.70;;;0.80;;
41705;SDS011;27385;51.096;17.190;2023-03-23T14:44:59;6.80;;;0.70;;
41705;SDS011;27385;51.096;17.190;2023-03-23T14:47:34;4.00;;;0.80;;
41705;SDS011;27385;51.096;17.190;2023-03-23T14:50:21;5.00;;;0.90;;
41705;SDS011;27385;51.096;17.190;2023-03-23T14:52:55;3.30;;;0.80;;
41705;SDS011;27385;51.096;17.190;2023-03-23T14:55:30;5.60;;;0.90;;
41705;SDS011;27385;51.096;17.190;2023-03-23T14:58:08;6.50;;;1.10;;
41705;SDS011;27385;51.096;17.190;2023-03-23T15:00:45;4.00;;;0.90;;
41705;SDS011;27385;51.096;17.190;2023-03-23T15:03:20;4.80;;;1.00;;
41705;SDS011;27385;51.096;17.190;2023-03-23T15:05:54;5.20;;;1.00;;
41705;SDS011;27385;51.096;17.190;2023-03-23T15:08:28;5.60;;;0.80;;
41705;SDS011;27385;51.096;17.190;2023-03-23T15:11:06;4.30;;;1.00;;
41705;SDS011;27385;51.096;17.190;2023-03-23T15:13:43;7.60;;;1.10;;
41705;SDS011;27385;51.096;17.190;2023-03-23T15:16:17;8.00;;;1.10;;
41705;SDS011;27385;51.096;17.190;2023-03-23T15:18:53;3.80;;;1.00;;